• Join FlightAware (Why Join?)
  • Login
  • US Flag 
11:11PM EDT


 

Airport Tracker/Info


-or-


 

Live Flight TrackerFlight Track Log ✈ JA-738J ✈ 15-Apr-2013 ✈ KORD - RJAA / NRT

Flight Track Log - Related Links

Times and Time Zones

All times are in EDT time to prevent confusion due to time zone crossing. See the JA-738J flight status page for this flight to view local times or setup timezone preferences in your user account.

Time Position Orientation Groundspeed Altitude Reporting Facility
EDT Latitude Longitude Course Direction KTS MPH feet Rate Location/Type
12:51PM 41.9670 -87.9650 251° West 196 226 2,500  Level FlightAware
12:51PM 41.9630 -87.9940 260° West 196 226 3,600 2,040 Climbing FlightAware
12:52PM 41.9600 -88.0320 264° West 218 251 4,400 1,320 Climbing FlightAware
12:52PM 41.9580 -88.0520 262° West 239 275 4,600 1,200 Climbing FlightAware
12:52PM 41.9530 -88.0900 260° West 260 299 5,200 2,160 Climbing FlightAware
12:53PM 41.9470 -88.1390 261° West 266 306 6,600 2,520 Climbing FlightAware
12:53PM 41.9470 -88.1520 270° West 272 313 6,900 2,100 Climbing FlightAware
12:53PM 41.9630 -88.1970 296° West 295 339 8,000 2,100 Climbing FlightAware
12:54PM 41.9800 -88.2110 329° Northwest 322 371 8,500 2,400 Climbing FlightAware
12:54PM 42.0060 -88.2160 352° North 335 386 9,200 2,400 Climbing FlightAware
12:54PM 42.0320 -88.2060 16° North 345 397 9,900 1,800 Climbing FlightAware
12:55PM 42.1070 -88.1320 36° Northeast 388 447 11,300 1,920 Climbing FlightAware
12:56PM 42.1620 -88.0720 39° Northeast 399 459 12,800 2,220 Climbing FlightAware
12:57PM 42.2340 -88.0210 28° Northeast 392 451 14,500 2,160 Climbing FlightAware
12:57PM 42.3070 -88.0190 North 391 450 15,900 2,160 Climbing FlightAware
12:58PM 42.3850 -88.0420 348° North 390 449 17,600 2,160 Climbing FlightAware
12:59PM 42.4540 -88.0650 346° North 397 457 19,000 2,160 Climbing FlightAware
12:59PM 42.5260 -88.0890 346° North 398 458 20,500 2,040 Climbing FlightAware
01:00PM 42.6130 -88.1170 347° North 407 468 21,900 1,680 Climbing FlightAware
01:01PM 42.6830 -88.1400 346° North 415 478 22,900 1,380 Climbing FlightAware
01:01PM 42.7560 -88.1650 346° North 425 489 23,800 1,260 Climbing FlightAware
01:02PM 42.8450 -88.1940 347° North 439 505 24,700 1,200 Climbing FlightAware
01:03PM 42.9240 -88.2200 346° North 450 518 25,500 1,200 Climbing FlightAware
01:04PM 43.0140 -88.2500 346° North 462 532 26,400 1,320 Climbing FlightAware
01:04PM 43.1010 -88.2820 345° North 453 521 27,400 1,200 Climbing FlightAware
01:05PM 43.1770 -88.3360 333° Northwest 445 512 28,000 840 Climbing FlightAware
01:06PM 43.2530 -88.4030 327° Northwest 457 526 28,600 960 Climbing FlightAware
01:06PM 43.3160 -88.4600 327° Northwest 462 532 29,300 1,020 Climbing FlightAware
01:07PM 43.3970 -88.5320 327° Northwest 457 526 30,000 480 Climbing FlightAware
01:08PM 43.4680 -88.5950 327° Northwest 456 525 30,000  Level FlightAware
01:08PM 43.5460 -88.6640 327° Northwest 461 531 30,000  Level FlightAware
01:09PM 43.6250 -88.7340 327° Northwest 464 534 30,000  Level FlightAware
01:10PM 43.7040 -88.8050 327° Northwest 465 535 30,000  Level FlightAware
01:11PM 43.7750 -88.8690 327° Northwest 464 534 30,000  Level FlightAware
01:11PM 43.8450 -88.9320 327° Northwest 464 534 30,000  Level FlightAware
01:12PM 43.9440 -89.0230 327° Northwest 462 532 30,000  Level FlightAware
01:13PM 44.0310 -89.1000 328° Northwest 452 520 30,000  Level FlightAware
01:13PM 44.0810 -89.1460 327° Northwest 450 518 30,000  Level FlightAware
01:14PM 44.1690 -89.2260 327° Northwest 446 513 30,000  Level FlightAware
01:15PM 44.2590 -89.3100 326° Northwest 445 512 30,000  Level FlightAware
01:16PM 44.3380 -89.3820 327° Northwest 444 511 30,000 -360 Level FlightAware
01:17PM 44.4150 -89.4530 327° Northwest 436 502 29,500 -360 Descending FlightAware
01:17PM 44.4810 -89.5150 326° Northwest 436 502 29,500  Level FlightAware
01:18PM 44.5520 -89.5820 326° Northwest 436 502 29,500 -780 Level FlightAware
01:19PM 44.6620 -89.6830 327° Northwest 439 505 28,200 -840 Descending FlightAware
01:20PM 44.7200 -89.7370 327° Northwest 439 505 28,200  Level FlightAware
01:20PM 44.7770 -89.7920 326° Northwest 439 505 28,200 -180 Level FlightAware
01:21PM 44.9020 -89.9070 327° Northwest 439 505 28,000 -120 Descending FlightAware
01:22PM 44.9710 -89.9730 326° Northwest 439 505 28,000  Level FlightAware
01:23PM 45.0280 -90.0280 326° Northwest 439 505 28,000  Level FlightAware
01:24PM 45.1180 -90.1200 324° Northwest 435 501 28,000  Level FlightAware
01:24PM 45.1830 -90.1870 324° Northwest 435 501 28,000  Level FlightAware
01:25PM 45.2590 -90.2650 324° Northwest 434 499 28,000  Level FlightAware
01:26PM 45.3240 -90.3310 324° Northwest 434 499 28,000  Level FlightAware
01:26PM 45.3950 -90.4040 324° Northwest 430 495 28,000  Level FlightAware
01:27PM 45.4590 -90.4700 324° Northwest 425 489 28,000  Level FlightAware
01:28PM 45.5240 -90.5380 324° Northwest 422 486 28,000  Level FlightAware
01:28PM 45.5950 -90.6120 324° Northwest 426 490 28,000  Level FlightAware
01:29PM 45.6600 -90.6800 324° Northwest 428 493 28,000  Level FlightAware
01:30PM 45.7300 -90.7520 324° Northwest 430 495 28,000  Level FlightAware
01:31PM 45.7950 -90.8210 324° Northwest 436 502 28,000  Level FlightAware
01:31PM 45.8700 -90.9000 324° Northwest 443 510 28,000  Level FlightAware
01:32PM 45.9200 -90.9530 324° Northwest 447 514 28,000  Level FlightAware
01:33PM 45.9920 -91.0290 324° Northwest 450 518 28,000  Level FlightAware
01:33PM 46.0610 -91.1020 324° Northwest 453 521 28,000  Level FlightAware
01:34PM 46.1110 -91.1560 323° Northwest 454 522 28,000  Level FlightAware
01:34PM 46.1710 -91.2200 324° Northwest 455 524 28,000  Level FlightAware
01:35PM 46.2410 -91.2940 324° Northwest 461 531 28,000  Level FlightAware
01:36PM 46.3150 -91.3740 323° Northwest 462 532 28,000  Level FlightAware
01:36PM 46.3820 -91.4470 323° Northwest 460 529 28,000  Level FlightAware
01:37PM 46.4620 -91.5330 323° Northwest 460 529 28,000  Level FlightAware
01:38PM 46.5310 -91.6080 323° Northwest 459 528 28,000  Level FlightAware
01:39PM 46.6030 -91.6870 323° Northwest 462 532 28,000  Level FlightAware
01:39PM 46.6730 -91.7630 323° Northwest 465 535 28,000  Level FlightAware
01:40PM 46.7410 -91.8380 323° Northwest 469 540 28,000  Level FlightAware
01:41PM 46.8220 -91.9270 323° Northwest 472 543 28,000  Level FlightAware
01:41PM 46.8920 -92.0040 323° Northwest 473 544 28,000  Level FlightAware
01:42PM 46.9610 -92.0800 323° Northwest 475 547 28,000  Level FlightAware
01:43PM 47.0380 -92.1670 322° Northwest 474 545 28,000  Level FlightAware
01:43PM 47.1090 -92.2450 323° Northwest 477 549 28,000  Level FlightAware
01:44PM 47.1870 -92.3330 323° Northwest 477 549 28,000  Level FlightAware
01:45PM 47.2590 -92.4140 323° Northwest 478 550 28,000  Level FlightAware
01:46PM 47.3360 -92.5010 323° Northwest 477 549 28,000  Level FlightAware
01:46PM 47.4060 -92.5800 323° Northwest 478 550 28,000  Level FlightAware
01:47PM 47.4770 -92.6600 323° Northwest 482 555 28,000  Level FlightAware
01:48PM 47.5580 -92.7530 322° Northwest 486 559 28,000  Level FlightAware
01:48PM 47.6290 -92.8340 322° Northwest 488 562 28,000  Level FlightAware
01:49PM 47.7080 -92.9250 322° Northwest 491 565 28,000  Level FlightAware
01:50PM 47.7800 -93.0080 322° Northwest 488 562 28,000  Level FlightAware
01:50PM 47.8510 -93.0900 322° Northwest 488 562 28,000  Level FlightAware
01:51PM 47.9300 -93.1830 322° Northwest 490 564 28,000  Level FlightAware
01:52PM 48.0050 -93.2690 323° Northwest 491 565 28,000  Level FlightAware
01:53PM 48.0950 -93.3760 322° Northwest 492 566 28,000  Level FlightAware
01:53PM 48.1550 -93.4490 321° Northwest 492 566 28,000  Level FlightAware
01:54PM 48.2150 -93.5220 321° Northwest 492 566 28,000  Level FlightAware
01:55PM 48.2900 -93.6140 321° Northwest 492 566 28,000  Level FlightAware
01:56PM 48.3500 -93.6870 321° Northwest 492 566 28,000  Level FlightAware
01:56PM 48.4100 -93.7600 321° Northwest 492 566 28,000 300 Level FlightAware
01:57PM 48.5225 -93.8856 321° Northwest 491 565 28,400 600 Climbing Minneapolis Center
01:58PM 48.6303 -94.0156 321° Northwest 496 571 29,000 660 Climbing Minneapolis Center
01:58PM 48.6500 -94.0500 311° West 500 575 29,300 540 Climbing Winnipeg Center
01:59PM 48.7383 -94.1478 324° Northwest 499 574 29,600 480 Climbing Minneapolis Center
02:00PM 48.8450 -94.2772 321° Northwest 496 571 30,200 600 Climbing Minneapolis Center
02:01PM 48.9711 -94.4325 321° Northwest 489 563 30,900 600 Climbing Minneapolis Center
02:02PM 49.0833 -94.5667 322° Northwest 490 564 31,600 480 Climbing Winnipeg Center
02:03PM 49.1833 -94.6833 323° Northwest 490 564 32,000 180 Climbing Winnipeg Center
02:04PM 49.2833 -94.8333 316° Northwest 480 552 32,000  Level Winnipeg Center
02:05PM 49.4000 -94.9667 323° Northwest 480 552 32,000  Level Winnipeg Center
02:06PM 49.5000 -95.0833 323° Northwest 490 564 32,000  Level Winnipeg Center
02:07PM 49.6000 -95.2167 319° Northwest 480 552 32,000  Level Winnipeg Center
02:08PM 49.7167 -95.3667 320° Northwest 490 564 32,000  Level Winnipeg Center
02:09PM 49.8167 -95.4833 323° Northwest 490 564 32,000  Level Winnipeg Center
02:10PM 49.9167 -95.6333 316° Northwest 490 564 32,000  Level Winnipeg Center
02:11PM 50.0167 -95.7667 319° Northwest 490 564 32,000  Level Winnipeg Center
02:12PM 50.1167 -95.9000 319° Northwest 490 564 32,000  Level Winnipeg Center
02:13PM 50.2333 -96.0167 327° Northwest 490 564 32,000  Level Winnipeg Center
02:14PM 50.3500 -96.1833 318° Northwest 490 564 32,000 -60 Level Winnipeg Center
02:15PM 50.4500 -96.3167 320° Northwest 490 564 31,900 -960 Descending Winnipeg Center
02:16PM 50.5500 -96.4667 316° Northwest 490 564 30,100 -960 Descending Winnipeg Center
02:17PM 50.6500 -96.6000 320° Northwest 500 575 30,000 -60 Descending Winnipeg Center
02:18PM 50.7667 -96.7500 321° Northwest 500 575 30,000  Level Winnipeg Center
02:19PM 50.8667 -96.8833 320° Northwest 490 564 30,000  Level Winnipeg Center
02:20PM 50.9667 -97.0500 314° West 490 564 30,000  Level Winnipeg Center
02:21PM 51.0667 -97.1833 320° Northwest 490 564 30,000  Level Winnipeg Center
02:22PM 51.1667 -97.3167 320° Northwest 490 564 30,000  Level Winnipeg Center
02:23PM 51.2667 -97.4500 320° Northwest 490 564 30,000  Level Winnipeg Center
02:24PM 51.3667 -97.6167 314° West 490 564 30,000  Level Winnipeg Center
02:25PM 51.4833 -97.7500 325° Northwest 490 564 30,000  Level Winnipeg Center
02:26PM 51.5833 -97.8833 320° Northwest 490 564 30,000  Level Winnipeg Center
02:27PM 51.6833 -98.0500 314° West 480 552 30,000  Level Winnipeg Center
02:28PM 51.7833 -98.1833 321° Northwest 480 552 30,000  Level Winnipeg Center
02:29PM 51.8833 -98.3167 321° Northwest 480 552 30,000  Level Winnipeg Center
02:30PM 51.9833 -98.4667 317° Northwest 480 552 30,000  Level Winnipeg Center
02:31PM 52.0833 -98.6000 321° Northwest 480 552 30,000  Level Winnipeg Center
02:32PM 52.1667 -98.7667 309° West 490 564 30,000  Level Winnipeg Center
02:33PM 52.2667 -98.9000 321° Northwest 490 564 30,000  Level Winnipeg Center
02:34PM 52.3667 -99.0833 312° West 490 564 30,000  Level Winnipeg Center
02:35PM 52.4667 -99.2167 321° Northwest 490 564 30,000  Level Winnipeg Center
02:36PM 52.5833 -99.3667 322° Northwest 490 564 30,000  Level Winnipeg Center
02:37PM 52.6833 -99.5000 321° Northwest 490 564 30,000  Level Winnipeg Center
02:38PM 52.7833 -99.6833 312° West 480 552 30,000  Level Winnipeg Center
02:39PM 52.8667 -99.8167 316° Northwest 490 564 30,000  Level Winnipeg Center
02:45PM 53.4420 -100.6640 316° Northwest 483 556 30,000  Level FlightAware
02:45PM 53.5180 -100.7810 318° Northwest 482 555 30,000  Level FlightAware
02:46PM 53.5690 -100.8590 318° Northwest 481 554 30,000  Level FlightAware
02:47PM 53.6520 -100.9870 318° Northwest 479 551 30,000  Level FlightAware
02:47PM 53.7250 -101.1000 318° Northwest 478 550 30,000  Level FlightAware
02:48PM 53.7840 -101.1920 317° Northwest 477 549 30,000  Level FlightAware
02:49PM 53.8510 -101.2970 317° Northwest 476 548 30,000  Level FlightAware
02:49PM 53.9130 -101.3940 317° Northwest 475 547 30,000  Level FlightAware
02:50PM 53.9920 -101.5190 317° Northwest 475 547 30,000  Level FlightAware
02:51PM 54.0390 -101.5930 317° Northwest 475 547 30,000  Level FlightAware
02:52PM 54.1160 -101.7160 317° Northwest 475 547 30,000  Level FlightAware
02:52PM 54.1800 -101.8180 317° Northwest 474 545 30,000  Level FlightAware
02:53PM 54.2520 -101.9340 317° Northwest 475 547 30,000  Level FlightAware
02:54PM 54.3140 -102.0340 317° Northwest 475 547 30,000  Level FlightAware
02:54PM 54.3820 -102.1450 316° Northwest 475 547 30,000  Level FlightAware
02:55PM 54.4460 -102.2490 317° Northwest 475 547 30,000  Level FlightAware
02:56PM 54.5110 -102.3560 316° Northwest 475 547 30,000  Level FlightAware
02:56PM 54.5650 -102.4450 316° Northwest 475 547 30,000  Level FlightAware
02:57PM 54.6180 -102.5340 316° Northwest 475 547 30,000  Level FlightAware
02:58PM 54.6720 -102.6240 316° Northwest 475 547 30,000  Level FlightAware
02:58PM 54.7260 -102.7140 316° Northwest 475 547 30,000  Level FlightAware
02:59PM 54.7930 -102.8260 316° Northwest 475 547 30,000 1,680 Level FlightAware
03:00PM 54.8500 -102.9333 316° Northwest 470 541 32,000 2,280 Climbing Edmonton Center
03:00PM 54.9167 -103.0500 315° West 470 541 32,000  Level Winnipeg Center
03:01PM 55.0167 -103.2167 316° Northwest 470 541 32,000  Level Winnipeg Center
03:02PM 55.1000 -103.3833 311° West 470 541 32,000  Level Winnipeg Center
03:03PM 55.2000 -103.5333 319° Northwest 470 541 32,000  Level Winnipeg Center
03:04PM 55.2833 -103.7000 311° West 470 541 32,000  Level Winnipeg Center
03:05PM 55.3167 -103.7333 330° Northwest 460 529 32,000  Level Edmonton Center
03:05PM 55.3833 -103.8667 311° West 470 541 32,000  Level Winnipeg Center
03:06PM 55.4667 -104.0333 311° West 470 541 32,000  Level Winnipeg Center
03:07PM 55.5667 -104.1833 320° Northwest 470 541 32,000  Level Winnipeg Center
03:08PM 55.6000 -104.2500 312° West 460 529 32,000  Level Edmonton Center
03:08PM 55.6500 -104.3500 312° West 460 529 32,000  Level Winnipeg Center
03:09PM 55.7500 -104.5167 317° Northwest 470 541 32,000  Level Winnipeg Center
03:10PM 55.8333 -104.6833 312° West 470 541 32,000  Level Winnipeg Center
03:11PM 55.9333 -104.8500 317° Northwest 460 529 32,000  Level Winnipeg Center
03:12PM 56.0167 -105.0000 315° West 460 529 32,000  Level Winnipeg Center
03:13PM 56.1000 -105.1667 312° West 460 529 32,000  Level Winnipeg Center
03:14PM 56.2000 -105.3333 317° Northwest 460 529 32,000  Level Winnipeg Center
03:15PM 56.2833 -105.5000 312° West 460 529 32,000  Level Winnipeg Center
03:16PM 56.3833 -105.6833 315° West 460 529 32,000  Level Winnipeg Center
03:17PM 56.4833 -105.8167 324° Northwest 460 529 32,000  Level Winnipeg Center
03:18PM 56.5667 -105.9667 315° West 460 529 32,000  Level Winnipeg Center
03:19PM 56.6167 -106.0167 331° Northwest 460 529 32,000  Level Edmonton Center
03:19PM 56.6833 -106.1167 321° Northwest 460 529 32,000  Level Winnipeg Center
03:20PM 56.7667 -106.2833 312° West 460 529 32,000  Level Winnipeg Center
03:21PM 56.8833 -106.4333 325° Northwest 460 529 32,000  Level Winnipeg Center
03:22PM 56.9667 -106.5833 316° Northwest 460 529 32,000  Level Winnipeg Center
03:23PM 57.0500 -106.7333 316° Northwest 460 529 32,000  Level Winnipeg Center
03:24PM 57.1667 -106.8833 325° Northwest 460 529 32,000  Level Winnipeg Center
03:25PM 57.2667 -107.0667 315° West 460 529 32,000  Level Winnipeg Center
03:26PM 57.3500 -107.2167 316° Northwest 470 541 32,000  Level Winnipeg Center
03:27PM 57.4000 -107.2333 350° North 460 529 32,000  Level Edmonton Center
03:27PM 57.4667 -107.3667 313° West 470 541 32,000  Level Winnipeg Center
03:28PM 57.5000 -107.3833 345° North 460 529 32,000  Level Edmonton Center
03:29PM 57.5667 -107.5500 307° West 460 529 32,000  Level Edmonton Center
03:30PM 57.6667 -107.7167 318° Northwest 460 529 32,000  Level Edmonton Center
03:31PM 57.7833 -107.8833 323° Northwest 450 518 32,000  Level Edmonton Center
03:32PM 57.8833 -108.0500 318° Northwest 460 529 32,000  Level Edmonton Center
03:33PM 57.9667 -108.1833 320° Northwest 450 518 32,000  Level Edmonton Center
03:34PM 58.0667 -108.3667 316° Northwest 460 529 32,000  Level Edmonton Center
03:35PM 58.1667 -108.5333 319° Northwest 450 518 32,000  Level Edmonton Center
03:36PM 58.2500 -108.7000 314° West 450 518 32,000  Level Edmonton Center
03:37PM 58.3500 -108.8667 319° Northwest 450 518 32,000  Level Edmonton Center
03:38PM 58.4333 -109.0167 317° Northwest 450 518 32,000  Level Edmonton Center
03:39PM 58.5333 -109.1833 319° Northwest 450 518 32,000  Level Edmonton Center
03:40PM 58.6333 -109.3667 316° Northwest 450 518 32,000  Level Edmonton Center
03:41PM 58.7167 -109.5333 314° West 450 518 32,000  Level Edmonton Center
03:42PM 58.8167 -109.6833 322° Northwest 450 518 32,000  Level Edmonton Center
03:43PM 58.9000 -109.8500 314° West 450 518 32,000  Level Edmonton Center
03:44PM 59.0000 -110.0333 317° Northwest 450 518 32,000  Level Edmonton Center
03:45PM 59.0833 -110.1833 317° Northwest 450 518 32,000  Level Edmonton Center
03:46PM 59.1667 -110.3667 312° West 440 506 32,000  Level Edmonton Center
03:47PM 59.2667 -110.5500 317° Northwest 450 518 32,000  Level Edmonton Center
03:48PM 59.3500 -110.7167 314° West 450 518 32,000  Level Edmonton Center
03:49PM 59.4500 -110.9000 317° Northwest 450 518 32,000  Level Edmonton Center
03:50PM 59.5500 -111.0667 320° Northwest 450 518 32,000  Level Edmonton Center
03:51PM 59.6167 -111.2333 308° West 450 518 32,000  Level Edmonton Center
03:52PM 59.7167 -111.4333 315° West 450 518 32,000  Level Edmonton Center
03:53PM 59.8333 -111.6167 322° Northwest 460 529 32,000  Level Edmonton Center
03:54PM 59.9000 -111.7667 312° West 460 529 32,000  Level Edmonton Center
03:55PM 60.0000 -111.9667 315° West 450 518 32,000  Level Edmonton Center
03:56PM 60.0667 -112.1500 306° West 440 506 32,000  Level Edmonton Center
03:57PM 60.1500 -112.3667 308° West 440 506 32,000  Level Edmonton Center
03:58PM 60.2167 -112.5500 306° West 440 506 32,000  Level Edmonton Center
03:59PM 60.2667 -112.7833 293° West 440 506 32,000  Level Edmonton Center
04:00PM 60.3500 -112.9667 313° West 440 506 32,000  Level Edmonton Center
04:01PM 60.4167 -113.1833 302° West 440 506 32,000  Level Edmonton Center
04:02PM 60.5000 -113.3833 310° West 440 506 32,000  Level Edmonton Center
04:03PM 60.5667 -113.6167 300° West 440 506 32,000  Level Edmonton Center
04:04PM 60.6333 -113.8333 302° West 440 506 32,000  Level Edmonton Center
04:05PM 60.7000 -114.0333 304° West 440 506 32,000  Level Edmonton Center
04:06PM 60.7833 -114.2667 306° West 450 518 32,000  Level Edmonton Center
04:07PM 60.8333 -114.4500 299° West 450 518 32,000  Level Edmonton Center
04:08PM 60.9000 -114.6833 301° West 450 518 32,000  Level Edmonton Center
04:09PM 60.9667 -114.8833 305° West 450 518 32,000  Level Edmonton Center
04:10PM 61.0333 -115.1167 301° West 440 506 32,000  Level Edmonton Center
04:11PM 61.1000 -115.3500 301° West 450 518 32,000  Level Edmonton Center
04:12PM 61.1833 -115.5500 311° West 450 518 32,000  Level Edmonton Center
04:13PM 61.2500 -115.7833 301° West 450 518 32,000  Level Edmonton Center
04:14PM 61.3167 -116.0000 303° West 450 518 32,000  Level Edmonton Center
04:15PM 61.3667 -116.2333 294° West 450 518 32,000  Level Edmonton Center
04:16PM 61.4333 -116.4667 301° West 450 518 32,000  Level Edmonton Center
04:17PM 61.5000 -116.6667 305° West 460 529 32,000  Level Edmonton Center
04:18PM 61.5833 -116.9167 305° West 460 529 32,000  Level Edmonton Center
04:19PM 61.6500 -117.1667 299° West 460 529 32,000  Level Edmonton Center
04:20PM 61.7167 -117.4000 301° West 460 529 32,000  Level Edmonton Center
04:21PM 61.7667 -117.6500 293° West 460 529 32,000  Level Edmonton Center
04:22PM 61.8333 -117.8667 303° West 460 529 32,000  Level Edmonton Center
04:23PM 61.9000 -118.1000 301° West 460 529 32,000  Level Edmonton Center
04:24PM 61.9667 -118.3500 300° West 460 529 32,000  Level Edmonton Center
04:25PM 62.0333 -118.6000 300° West 460 529 32,000  Level Edmonton Center
04:26PM 62.1000 -118.8167 303° West 460 529 32,000  Level Edmonton Center
04:27PM 62.1500 -119.0667 293° West 460 529 32,000  Level Edmonton Center
04:28PM 62.2167 -119.3167 300° West 460 529 32,000  Level Edmonton Center
04:29PM 62.2833 -119.5333 304° West 460 529 32,000  Level Edmonton Center
04:30PM 62.3333 -119.7833 293° West 460 529 32,000  Level Edmonton Center
04:31PM 62.4000 -120.0500 298° West 450 518 32,000  Level Edmonton Center
04:32PM 62.4500 -120.3000 293° West 450 518 32,000  Level Edmonton Center
04:33PM 62.5167 -120.5500 300° West 460 529 32,000  Level Edmonton Center
04:34PM 62.5833 -120.7833 302° West 460 529 32,000  Level Edmonton Center
04:35PM 62.6333 -121.0333 294° West 450 518 32,000  Level Edmonton Center
04:36PM 62.6833 -121.3000 292° West 460 529 32,000  Level Edmonton Center
04:37PM 62.7500 -121.5167 304° West 450 518 32,000  Level Edmonton Center
04:38PM 62.8000 -121.7833 292° West 450 518 32,000  Level Edmonton Center
04:39PM 62.8667 -122.0333 300° West 450 518 32,000  Level Edmonton Center
04:40PM 62.9167 -122.2667 295° West 450 518 32,000  Level Edmonton Center
04:41PM 62.9833 -122.5333 299° West 460 529 32,000  Level Edmonton Center
04:43PM 63.0473 -123.0745 285° West  Level FlightAware Approximate
04:50PM 63.2579 -125.0195 284° West  Level FlightAware Approximate
04:51PM 63.2858 -125.2996 283° West  Level FlightAware Approximate
04:52PM 63.3132 -125.5802 282° West  Level FlightAware Approximate
04:53PM 63.3583 -125.8614 291° West  Level FlightAware Approximate
04:54PM 63.4035 -126.1311 291° West  Level FlightAware Approximate
04:55PM 63.4482 -126.4016 290° West  Level FlightAware Approximate
04:56PM 63.4925 -126.6730 290° West  Level FlightAware Approximate
04:57PM 63.5362 -126.9452 290° West  Level FlightAware Approximate
04:58PM 63.5793 -127.2183 290° West  Level FlightAware Approximate
04:59PM 63.6220 -127.4922 289° West  Level FlightAware Approximate
05:00PM 63.6642 -127.7669 289° West  Level FlightAware Approximate
05:01PM 63.7040 -128.0437 288° West  Level FlightAware Approximate
05:02PM 63.7432 -128.3214 288° West  Level FlightAware Approximate
05:03PM 63.7819 -128.5998 288° West  Level FlightAware Approximate
05:04PM 63.8200 -128.8790 287° West  Level FlightAware Approximate
05:05PM 63.8576 -129.1590 287° West  Level FlightAware Approximate
05:06PM 63.8946 -129.4397 287° West  Level FlightAware Approximate
05:07PM 63.9311 -129.7212 287° West  Level FlightAware Approximate
05:08PM 63.9670 -130.0034 282° West  Level FlightAware Approximate
05:09PM 63.9939 -130.2911 282° West  Level FlightAware Approximate
05:10PM 64.0201 -130.5793 282° West  Level FlightAware Approximate
05:11PM 64.0459 -130.8681 282° West  Level FlightAware Approximate
05:12PM 64.0710 -131.1574 281° West  Level FlightAware Approximate
05:13PM 64.0958 -131.4470 281° West  Level FlightAware Approximate
05:14PM 64.1200 -131.7371 281° West  Level FlightAware Approximate
05:15PM 64.1437 -132.0277 281° West  Level FlightAware Approximate
05:16PM 64.1667 -132.3188 280° West  Level FlightAware Approximate
05:17PM 64.1892 -132.6103 280° West  Level FlightAware Approximate
05:18PM 64.2111 -132.9023 280° West  Level FlightAware Approximate
05:19PM 64.2324 -133.1948 280° West  Level FlightAware Approximate
05:20PM 64.2531 -133.4877 279° West  Level FlightAware Approximate
05:21PM 64.2733 -133.7811 279° West  Level FlightAware Approximate
05:22PM 64.2928 -134.0749 279° West  Level FlightAware Approximate
05:23PM 64.3118 -134.3691 279° West  Level FlightAware Approximate
05:24PM 64.3302 -134.6637 278° West  Level FlightAware Approximate
05:25PM 64.3479 -134.9586 278° West  Level FlightAware Approximate
05:26PM 64.3651 -135.2540 278° West  Level FlightAware Approximate
05:27PM 64.3817 -135.5497 278° West  Level FlightAware Approximate
05:28PM 64.3977 -135.8458 277° West  Level FlightAware Approximate
05:29PM 64.4131 -136.1422 277° West  Level FlightAware Approximate
05:30PM 64.4279 -136.4389 277° West  Level FlightAware Approximate
05:31PM 64.4421 -136.7359 276° West  Level FlightAware Approximate
05:32PM 64.4557 -137.0333 276° West  Level FlightAware Approximate
05:33PM 64.4686 -137.3309 275° West  Level FlightAware Approximate
05:34PM 64.4800 -137.6291 275° West  Level FlightAware Approximate
05:35PM 64.4908 -137.9274 275° West  Level FlightAware Approximate
05:36PM 64.5010 -138.2260 275° West  Level FlightAware Approximate
05:37PM 64.5106 -138.5248 274° West  Level FlightAware Approximate
05:38PM 64.5196 -138.8238 274° West  Level FlightAware Approximate
05:39PM 64.5280 -139.1230 274° West  Level FlightAware Approximate
05:39PM 64.5333 -139.0333 273° West 460 529 32,000  Level Anchorage Center
05:40PM 64.5357 -139.4224 274° West  Level FlightAware Approximate
05:40PM 64.5500 -139.3333 277° West 470 541 32,000  Level Anchorage Center
05:41PM 64.5429 -139.7220 273° West  Level FlightAware Approximate
05:41PM 64.5500 -139.6333 270° West 470 541 32,000  Level Anchorage Center
05:42PM 64.5495 -140.0216 273° West  Level FlightAware Approximate
05:42PM 64.5500 -139.9500 270° West 470 541 32,000  Level Anchorage Center
05:43PM 64.5554 -140.3215 273° West  Level FlightAware Approximate
05:43PM 64.5667 -140.2500 278° West 470 541 32,000  Level Anchorage Center
05:44PM 64.5608 -140.6214 273° West  Level FlightAware Approximate
05:44PM 64.5667 -140.5500 270° West 480 552 32,000  Level Anchorage Center
05:45PM 64.5833 -140.8667 277° West 460 529 32,000  Level Anchorage Center
05:46PM 64.5833 -141.1667 270° West 480 552 32,000  Level Anchorage Center
05:47PM 64.6000 -141.4833 277° West 480 552 32,000  Level Anchorage Center
05:48PM 64.6167 -141.7833 278° West 470 541 32,000  Level Anchorage Center
05:49PM 64.6333 -142.0833 278° West 480 552 32,000  Level Anchorage Center
05:50PM 64.6500 -142.4000 277° West 480 552 32,000  Level Anchorage Center
05:51PM 64.6667 -142.7000 278° West 470 541 32,000 240 Level Anchorage Center
05:52PM 64.6667 -143.0167 270° West 470 541 32,500 480 Climbing Anchorage Center
05:53PM 64.6833 -143.3167 278° West 480 552 33,000 480 Climbing Anchorage Center
05:55PM 64.7167 -143.9667 277° West 470 541 34,000 300 Climbing Anchorage Center
05:56PM 64.7167 -144.2833 270° West 470 541 34,000  Level Anchorage Center
05:57PM 64.7333 -144.5667 278° West 470 541 34,000  Level Anchorage Center
05:58PM 64.7333 -144.8667 270° West 470 541 34,000  Level Anchorage Center
05:59PM 64.7500 -145.2000 277° West 480 552 34,000  Level Anchorage Center
06:00PM 64.7500 -145.5000 270° West 470 541 34,000  Level Anchorage Center
06:01PM 64.7667 -145.8167 277° West 470 541 34,000  Level Anchorage Center
06:02PM 64.7667 -146.1167 270° West 470 541 34,000  Level Anchorage Center
06:03PM 64.7667 -146.4000 270° West 470 541 34,000  Level Anchorage Center
06:04PM 64.7833 -146.7333 277° West 470 541 34,000  Level Anchorage Center
06:05PM 64.7833 -147.0333 270° West 470 541 34,000  Level Anchorage Center
06:06PM 64.7833 -147.3500 270° West 480 552 34,000  Level Anchorage Center
06:07PM 64.7833 -147.6167 270° West 460 529 34,000  Level Anchorage Center
06:08PM 64.7833 -147.9500 270° West 460 529 34,000  Level Anchorage Center
06:09PM 64.8000 -148.2333 278° West 480 552 34,000  Level Anchorage Center
06:10PM 64.8000 -148.5667 270° West 470 541 34,000  Level Anchorage Center
06:12PM 64.8167 -149.1833 274° West 470 541 34,000  Level Anchorage Center
06:13PM 64.8167 -149.5000 270° West 470 541 34,000  Level Anchorage Center
06:14PM 64.8167 -149.8000 270° West 470 541 34,000  Level Anchorage Center
06:15PM 64.8167 -150.1167 270° West 480 552 34,000  Level Anchorage Center
06:16PM 64.8333 -150.4333 277° West 470 541 34,000  Level Anchorage Center
06:17PM 64.8333 -150.7500 270° West 470 541 34,000  Level Anchorage Center
06:18PM 64.8333 -151.0500 270° West 480 552 34,000  Level Anchorage Center
06:19PM 64.8333 -151.3667 270° West 470 541 34,000  Level Anchorage Center
06:20PM 64.8333 -151.6667 270° West 460 529 34,000  Level Anchorage Center
06:21PM 64.8333 -151.9667 270° West 460 529 34,000  Level Anchorage Center
06:22PM 64.8167 -152.2500 262° West 450 518 34,000  Level Anchorage Center
06:23PM 64.8167 -152.5667 270° West 460 529 34,000  Level Anchorage Center
06:24PM 64.8167 -152.8667 270° West 470 541 34,000  Level Anchorage Center
06:25PM 64.8167 -153.1833 270° West 470 541 34,000  Level Anchorage Center
06:26PM 64.8167 -153.4833 270° West 470 541 34,000  Level Anchorage Center
06:27PM 64.8000 -153.8167 263° West 480 552 34,000  Level Anchorage Center
06:28PM 64.8000 -154.1167 270° West 480 552 34,000  Level Anchorage Center
06:29PM 64.8000 -154.4333 270° West 480 552 34,000  Level Anchorage Center
06:30PM 64.7833 -154.7500 263° West 470 541 34,000  Level Anchorage Center
06:31PM 64.7833 -155.0667 270° West 470 541 34,000  Level Anchorage Center
06:32PM 64.7667 -155.3667 263° West 470 541 34,000  Level Anchorage Center
06:33PM 64.7667 -155.6833 270° West 480 552 34,000  Level Anchorage Center
06:34PM 64.7500 -155.9833 263° West 460 529 34,000  Level Anchorage Center
06:35PM 64.7500 -156.3000 270° West 470 541 34,000  Level Anchorage Center
06:36PM 64.7333 -156.6000 263° West 460 529 34,000  Level Anchorage Center
06:37PM 64.7167 -156.9000 263° West 480 552 34,000  Level Anchorage Center
06:38PM 64.6500 -157.1667 240° Southwest 470 541 34,000  Level Anchorage Center
06:39PM 64.6000 -157.4333 246° West 460 529 34,000  Level Anchorage Center
06:40PM 64.5333 -157.7167 241° Southwest 470 541 34,000  Level Anchorage Center
06:41PM 64.4833 -158.0000 248° West 470 541 34,000  Level Anchorage Center
06:42PM 64.4167 -158.2833 242° Southwest 480 552 34,000  Level Anchorage Center
06:43PM 64.3667 -158.5500 247° West 480 552 34,000  Level Anchorage Center
06:44PM 64.3000 -158.8333 242° Southwest 490 564 34,000  Level Anchorage Center
06:45PM 64.2500 -159.1167 248° West 480 552 34,000  Level Anchorage Center
06:46PM 64.1833 -159.3833 240° Southwest 490 564 34,000  Level Anchorage Center
06:47PM 64.1167 -159.6500 240° Southwest 480 552 34,000  Level Anchorage Center
06:48PM 64.0667 -159.9167 247° West 470 541 34,000  Level Anchorage Center
06:49PM 64.0000 -160.1833 240° Southwest 470 541 34,000  Level Anchorage Center
06:50PM 63.9333 -160.4500 240° Southwest 470 541 34,000  Level Anchorage Center
06:51PM 63.8667 -160.7167 241° Southwest 480 552 34,000  Level Anchorage Center
06:52PM 63.8000 -160.9833 241° Southwest 460 529 34,000  Level Anchorage Center
06:53PM 63.7333 -161.2333 239° Southwest 480 552 34,000  Level Anchorage Center
06:54PM 63.6667 -161.4833 239° Southwest 470 541 34,000  Level Anchorage Center
06:55PM 63.6000 -161.7333 239° Southwest 470 541 34,000  Level Anchorage Center
06:56PM 63.5167 -161.9833 233° Southwest 470 541 34,000  Level Anchorage Center
06:57PM 63.4500 -162.2500 241° Southwest 470 541 34,000  Level Anchorage Center
06:58PM 63.3833 -162.4833 238° Southwest 460 529 34,000  Level Anchorage Center
06:59PM 63.3000 -162.7333 234° Southwest 470 541 34,000  Level Anchorage Center
07:00PM 63.2500 -163.0167 249° West 470 541 34,000  Level Anchorage Center
07:01PM 63.2167 -163.2833 255° West 460 529 34,000  Level Anchorage Center
07:02PM 63.1667 -163.5500 248° West 470 541 34,000  Level Anchorage Center
07:03PM 63.1167 -163.7667 243° Southwest 470 541 34,000  Level Anchorage Center
07:04PM 63.0667 -164.0833 251° West 460 529 34,000  Level Anchorage Center
07:05PM 63.0167 -164.3500 248° West 470 541 34,000  Level Anchorage Center
07:06PM 62.9667 -164.6167 248° West 460 529 34,000  Level Anchorage Center
07:07PM 62.9167 -164.8167 241° Southwest 460 529 34,000  Level Anchorage Center
07:08PM 62.8667 -165.1333 251° West 460 529 34,000  Level Anchorage Center
07:10PM 62.7667 -165.6000 245° Southwest 460 529 34,000  Level Anchorage Center
07:11PM 62.7167 -165.8667 248° West 470 541 34,000  Level Anchorage Center
07:12PM 62.6500 -166.1167 240° Southwest 470 541 34,000  Level Anchorage Center
07:13PM 62.6000 -166.3833 248° West 470 541 34,000  Level Anchorage Center
07:14PM 62.5500 -166.6333 247° West 460 529 34,000  Level Anchorage Center
07:15PM 62.5000 -166.8833 247° West 470 541 34,000  Level Anchorage Center
07:16PM 62.4333 -167.1500 242° Southwest 470 541 34,000  Level Anchorage Center
07:17PM 62.3833 -167.4000 247° West 460 529 34,000  Level Anchorage Center
07:18PM 62.3333 -167.6500 247° West 470 541 34,000  Level Anchorage Center
07:19PM 62.2667 -167.9000 240° Southwest 470 541 34,000  Level Anchorage Center
07:20PM 62.2167 -168.1500 247° West 470 541 34,000  Level Anchorage Center
07:21PM 62.1500 -168.4000 240° Southwest 460 529 34,000  Level Anchorage Center
07:22PM 62.1000 -168.6333 245° Southwest 460 529 34,000  Level Anchorage Center
07:23PM 62.0333 -168.8833 240° Southwest 460 529 34,000  Level Anchorage Center
07:24PM 61.9833 -169.1167 246° West 450 518 34,000  Level Anchorage Center
07:25PM 61.9167 -169.3667 241° Southwest 460 529 34,000  Level Anchorage Center
07:26PM 61.8667 -169.6167 247° West 460 529 34,000  Level Anchorage Center
07:27PM 61.8000 -169.8500 239° Southwest 460 529 34,000  Level Anchorage Center
07:28PM 61.7333 -170.1000 241° Southwest 470 541 34,000  Level Anchorage Center
07:29PM 61.6833 -170.3500 247° West 470 541 34,000  Level Anchorage Center
07:30PM 61.6167 -170.5833 239° Southwest 470 541 34,000  Level Anchorage Center
07:31PM 61.5500 -170.8167 239° Southwest 470 541 34,000  Level Anchorage Center
07:32PM 61.5000 -171.0667 247° West 460 529 34,000  Level Anchorage Center
07:33PM 61.4333 -171.3000 239° Southwest 460 529 34,000  Level Anchorage Center
07:34PM 61.3667 -171.5500 241° Southwest 470 541 34,000  Level Anchorage Center
07:35PM 61.3000 -171.7833 239° Southwest 470 541 34,000  Level Anchorage Center
07:36PM 61.2333 -172.0167 239° Southwest 470 541 34,000  Level Anchorage Center
07:37PM 61.1833 -172.2500 246° West 460 529 34,000  Level Anchorage Center
07:38PM 61.1000 -172.4833 234° Southwest 460 529 34,000  Level Anchorage Center
07:39PM 61.0333 -172.7167 240° Southwest 460 529 34,000  Level Anchorage Center
07:40PM 60.9833 -172.9333 245° Southwest 460 529 34,000  Level Anchorage Center
07:41PM 60.9167 -173.1667 240° Southwest 470 541 34,000  Level Anchorage Center
07:42PM 60.8500 -173.4000 240° Southwest 460 529 34,000  Level Anchorage Center
07:43PM 60.7833 -173.6333 240° Southwest 460 529 34,000  Level Anchorage Center
07:44PM 60.7167 -173.8500 238° Southwest 460 529 34,000  Level Anchorage Center
07:45PM 60.6500 -174.0667 238° Southwest 470 541 34,000  Level Anchorage Center
07:46PM 60.5833 -174.3000 240° Southwest 470 541 34,000  Level Anchorage Center
07:47PM 60.5000 -174.5167 232° Southwest 460 529 34,000  Level Anchorage Center
07:48PM 60.4333 -174.7500 240° Southwest 470 541 34,000  Level Anchorage Center
07:49PM 60.3667 -174.9833 240° Southwest 480 552 34,000  Level Anchorage Center
07:50PM 60.3000 -175.2000 238° Southwest 480 552 34,000  Level Anchorage Center
07:52PM 60.2000 -175.6333 237° Southwest 479 551 34,000  Level Anchorage Center
07:59PM 59.6866 -177.1688 236° Southwest 479 551 34,000  Level FlightAware Transoceanic
08:00PM 59.6119 -177.3843 235° Southwest 479 551 34,000  Level FlightAware Transoceanic
08:01PM 59.5367 -177.5988 235° Southwest 479 551 34,000  Level FlightAware Transoceanic
08:02PM 59.4613 -177.8123 235° Southwest 479 551 34,000  Level FlightAware Transoceanic
08:03PM 59.3854 -178.0249 235° Southwest 479 551 34,000  Level FlightAware Transoceanic
08:04PM 59.3092 -178.2366 235° Southwest 479 551 34,000 660 Level FlightAware Transoceanic
08:04PM 59.2833 -178.3000 235° Southwest 474 545 35,000  Climbing Anchorage Center
08:05PM 59.2327 -178.4473 235° Southwest 479 551 34,000 -660 Descending FlightAware Transoceanic
08:06PM 59.1559 -178.6571 234° Southwest 479 551 34,000  Level FlightAware Transoceanic
08:07PM 59.0787 -178.8659 234° Southwest 479 551 34,000  Level FlightAware Transoceanic
08:08PM 59.0012 -179.0738 234° Southwest 479 551 34,000  Level FlightAware Transoceanic
08:09PM 58.9233 -179.2808 234° Southwest 479 551 34,000 480 Level FlightAware Transoceanic
08:10PM 58.8217 -179.5413 234° Southwest 474 545 35,000 480 Climbing FlightAware Transoceanic
08:11PM 58.7436 -179.7449 233° Southwest 474 545 35,000  Level FlightAware Transoceanic
08:12PM 58.6652 -179.9476 233° Southwest 474 545 35,000  Level FlightAware Transoceanic
08:13PM 58.5865 179.8505 233° Southwest 474 545 35,000  Level FlightAware Transoceanic
08:14PM 58.5074 179.6496 233° Southwest 474 545 35,000  Level FlightAware Transoceanic
08:15PM 58.4281 179.4496 233° Southwest 474 545 35,000  Level FlightAware Transoceanic
08:16PM 58.3484 179.2505 233° Southwest 474 545 35,000  Level FlightAware Transoceanic
08:16PM 58.3167 179.1833 233° Southwest 474 545 35,000  Level Anchorage Center
08:17PM 58.2685 179.0523 232° Southwest 474 545 35,000  Level FlightAware Transoceanic
08:18PM 58.1882 178.8550 232° Southwest 474 545 35,000  Level FlightAware Transoceanic
08:19PM 58.1076 178.6586 232° Southwest 474 545 35,000  Level FlightAware Transoceanic
08:20PM 58.0268 178.4630 232° Southwest 474 545 35,000  Level FlightAware Transoceanic
08:21PM 57.9456 178.2684 232° Southwest 474 545 35,000  Level FlightAware Transoceanic
08:22PM 57.8641 178.0746 232° Southwest 474 545 35,000  Level FlightAware Transoceanic
08:23PM 57.8242 177.9897 232° Southwest 474 545 35,000  Level FlightAware Transoceanic
08:24PM 57.7410 177.7940 231° Southwest 474 545 35,000  Level FlightAware Transoceanic
08:25PM 57.6575 177.5991 231° Southwest 474 545 35,000  Level FlightAware Transoceanic
08:26PM 57.5738 177.4052 231° Southwest 474 545 35,000  Level FlightAware Transoceanic
08:27PM 57.4897 177.2121 231° Southwest 474 545 35,000  Level FlightAware Transoceanic
08:28PM 57.4054 177.0199 231° Southwest 474 545 35,000  Level FlightAware Transoceanic
08:29PM 57.3207 176.8286 231° Southwest 474 545 35,000  Level FlightAware Transoceanic
08:29PM 57.2667 176.7000 230° Southwest 475 547 35,000  Level Anchorage Center
08:30PM 57.2358 176.6382 230° Southwest 474 545 35,000  Level FlightAware Transoceanic
08:31PM 57.1506 176.4487 230° Southwest 474 545 35,000  Level FlightAware Transoceanic
08:32PM 57.0651 176.2600 230° Southwest 474 545 35,000  Level FlightAware Transoceanic
08:33PM 56.9793 176.0722 230° Southwest 474 545 35,000  Level FlightAware Transoceanic
08:34PM 56.8932 175.8853 230° Southwest 474 545 35,000  Level FlightAware Transoceanic
08:35PM 56.7640 175.6018 229° Southwest 475 547 35,000  Level FlightAware Transoceanic
08:36PM 56.6793 175.4216 229° Southwest 475 547 35,000  Level FlightAware Transoceanic
08:37PM 56.5943 175.2423 229° Southwest 475 547 35,000  Level FlightAware Transoceanic
08:38PM 56.5091 175.0637 229° Southwest 475 547 35,000  Level FlightAware Transoceanic
08:39PM 56.4236 174.8860 229° Southwest 475 547 35,000  Level FlightAware Transoceanic
08:40PM 56.3379 174.7090 229° Southwest 475 547 35,000  Level FlightAware Transoceanic
08:41PM 56.2519 174.5329 229° Southwest 475 547 35,000  Level FlightAware Transoceanic
08:42PM 56.1657 174.3575 228° Southwest 475 547 35,000  Level FlightAware Transoceanic
08:43PM 56.0792 174.1830 228° Southwest 475 547 35,000  Level FlightAware Transoceanic
08:43PM 56.0667 174.1667 228° Southwest 465 535 35,000  Level Anchorage Center
08:43PM 56.0167 174.1000 228° Southwest 470 541 35,000  Level Anchorage Center
08:44PM 55.9925 174.0092 228° Southwest 475 547 35,000  Level FlightAware Transoceanic
08:44PM 55.9333 173.9167 231° Southwest 480 552 35,000  Level Anchorage Center
08:45PM 55.9055 173.8362 228° Southwest 475 547 35,000  Level FlightAware Transoceanic
08:45PM 55.8500 173.7500 228° Southwest 470 541 35,000  Level Anchorage Center
08:46PM 55.8183 173.6639 228° Southwest 475 547 35,000  Level FlightAware Transoceanic
08:46PM 55.7500 173.5833 223° Southwest 460 529 35,000  Level Anchorage Center
08:47PM 55.7308 173.4925 228° Southwest 475 547 35,000  Level FlightAware Transoceanic
08:47PM 55.6833 173.4167 235° Southwest 470 541 35,000  Level Anchorage Center
08:48PM 55.6432 173.3218 228° Southwest 475 547 35,000  Level FlightAware Transoceanic
08:48PM 55.5833 173.2500 223° Southwest 460 529 35,000  Level Anchorage Center
08:49PM 55.5484 173.1433 228° Southwest 465 535 35,000  Level FlightAware Transoceanic
08:49PM 55.5167 173.0833 235° Southwest 460 529 35,000  Level Anchorage Center
08:50PM 55.4333 172.9000 231° Southwest 460 529 35,000  Level Anchorage Center
08:51PM 55.3667 172.7500 232° Southwest 460 529 35,000  Level Anchorage Center
08:52PM 55.2667 172.5833 224° Southwest 450 518 35,000  Level Anchorage Center
08:53PM 55.1667 172.4000 226° Southwest 450 518 35,000  Level Anchorage Center
08:54PM 55.1000 172.2667 229° Southwest 450 518 35,000  Level Anchorage Center
08:55PM 55.0000 172.0833 226° Southwest 470 541 35,000  Level Anchorage Center
08:56PM 54.9333 171.9333 232° Southwest 470 541 35,000  Level Anchorage Center
08:57PM 54.8333 171.7500 227° Southwest 460 529 35,000  Level Anchorage Center
08:58PM 54.7667 171.6167 229° Southwest 460 529 35,000  Level Anchorage Center
08:59PM 54.6833 171.4167 234° Southwest 450 518 35,000  Level Anchorage Center
09:00PM 54.6167 171.2333 238° Southwest 460 529 35,000  Level Anchorage Center
09:01PM 54.5500 171.0667 235° Southwest 450 518 35,000  Level Anchorage Center
09:02PM 54.4667 170.8833 232° Southwest 450 518 35,000  Level Anchorage Center
09:03PM 54.4000 170.7333 233° Southwest 450 518 35,000  Level Anchorage Center
09:04PM 54.3167 170.5333 235° Southwest 460 529 35,000  Level Anchorage Center
09:05PM 54.2500 170.3833 233° Southwest 450 518 35,000  Level Anchorage Center
09:06PM 54.1667 170.2000 232° Southwest 450 518 35,000  Level Anchorage Center
09:07PM 54.1000 170.0500 233° Southwest 470 541 35,000  Level Anchorage Center
09:08PM 54.0167 169.8667 232° Southwest 450 518 35,000  Level Anchorage Center
09:09PM 53.9333 169.6667 235° Southwest 450 518 35,000  Level Anchorage Center
09:10PM 53.8667 169.5167 233° Southwest 460 529 35,000  Level Anchorage Center
09:11PM 53.8000 169.3500 236° Southwest 450 518 35,000  Level Anchorage Center
09:12PM 53.7167 169.1833 230° Southwest 470 541 35,000  Level Anchorage Center
09:13PM 53.6500 168.9833 241° Southwest 470 541 35,000  Level Anchorage Center
09:14PM 53.6000 168.8167 243° Southwest 460 529 35,000  Level Anchorage Center
09:15PM 53.5333 168.6167 241° Southwest 460 529 35,000  Level Anchorage Center
09:18PM 53.4167 168.2333 240° Southwest 459 528 35,000  Level Anchorage Center
09:24PM 53.0175 167.1120 239° Southwest 459 528 35,000  Level FlightAware Transoceanic
09:25PM 52.9499 166.9272 239° Southwest 459 528 35,000  Level FlightAware Transoceanic
09:26PM 52.8821 166.7429 239° Southwest 459 528 35,000  Level FlightAware Transoceanic
09:27PM 52.8140 166.5592 238° Southwest 459 528 35,000  Level FlightAware Transoceanic
09:28PM 52.7456 166.3760 238° Southwest 459 528 35,000  Level FlightAware Transoceanic
09:29PM 52.6769 166.1935 238° Southwest 459 528 35,000  Level FlightAware Transoceanic
09:30PM 52.6079 166.0115 238° Southwest 459 528 35,000  Level FlightAware Transoceanic
09:31PM 52.5387 165.8301 238° Southwest 459 528 35,000  Level FlightAware Transoceanic
09:32PM 52.4692 165.6493 238° Southwest 459 528 35,000  Level FlightAware Transoceanic
09:33PM 52.3994 165.4690 238° Southwest 459 528 35,000  Level FlightAware Transoceanic
09:34PM 52.3293 165.2893 237° Southwest 459 528 35,000  Level FlightAware Transoceanic
09:35PM 52.2590 165.1102 237° Southwest 459 528 35,000  Level FlightAware Transoceanic
09:36PM 52.1884 164.9317 237° Southwest 459 528 35,000 540 Level FlightAware Transoceanic
09:36PM 52.1667 164.8833 237° Southwest 465 535 36,000  Climbing Anchorage Center
09:37PM 52.1175 164.7537 237° Southwest 459 528 35,000 -780 Descending FlightAware Transoceanic
09:38PM 52.0464 164.5762 237° Southwest 459 528 35,000  Level FlightAware Transoceanic
09:39PM 51.9750 164.3994 237° Southwest 459 528 35,000  Level FlightAware Transoceanic
09:40PM 51.9033 164.2231 237° Southwest 459 528 35,000  Level FlightAware Transoceanic
09:41PM 51.8314 164.0474 236° Southwest 459 528 35,000 480 Level FlightAware Transoceanic
09:42PM 51.8015 163.9799 236° Southwest 465 535 36,000 480 Climbing FlightAware Transoceanic
09:43PM 51.7276 163.8010 236° Southwest 465 535 36,000  Level FlightAware Transoceanic
09:44PM 51.6535 163.6227 236° Southwest 465 535 36,000  Level FlightAware Transoceanic
09:44PM 51.6500 163.6500 236° Southwest 466 536 36,000  Level Anchorage Center
09:45PM 51.5791 163.4449 236° Southwest 465 535 36,000  Level FlightAware Transoceanic
09:46PM 51.5044 163.2677 236° Southwest 465 535 36,000  Level FlightAware Transoceanic
09:47PM 51.4295 163.0911 236° Southwest 465 535 36,000  Level FlightAware Transoceanic
09:48PM 51.3543 162.9151 236° Southwest 465 535 36,000  Level FlightAware Transoceanic
09:49PM 51.2788 162.7397 235° Southwest 465 535 36,000  Level FlightAware Transoceanic
09:50PM 51.2181 162.6260 236° Southwest 466 536 36,000  Level FlightAware Transoceanic
09:51PM 51.1452 162.4572 235° Southwest 466 536 36,000  Level FlightAware Transoceanic
09:52PM 51.0721 162.2890 235° Southwest 466 536 36,000  Level FlightAware Transoceanic
09:53PM 50.9988 162.1213 235° Southwest 466 536 36,000  Level FlightAware Transoceanic
09:54PM 50.9252 161.9541 235° Southwest 466 536 36,000  Level FlightAware Transoceanic
09:55PM 50.8514 161.7874 235° Southwest 466 536 36,000  Level FlightAware Transoceanic
09:56PM 50.7774 161.6213 235° Southwest 466 536 36,000  Level FlightAware Transoceanic
09:57PM 50.7031 161.4557 235° Southwest 466 536 36,000  Level FlightAware Transoceanic
09:58PM 50.6286 161.2906 234° Southwest 466 536 36,000  Level FlightAware Transoceanic
09:59PM 50.5538 161.1260 234° Southwest 466 536 36,000  Level FlightAware Transoceanic
10:00PM 50.4789 160.9620 234° Southwest 466 536 36,000  Level FlightAware Transoceanic
10:01PM 50.4037 160.7985 234° Southwest 466 536 36,000  Level FlightAware Transoceanic
10:02PM 50.3282 160.6355 234° Southwest 466 536 36,000  Level FlightAware Transoceanic
10:03PM 50.2526 160.4730 234° Southwest 466 536 36,000  Level FlightAware Transoceanic
10:03PM 50.2000 160.3833 234° Southwest 454 522 36,000  Level Anchorage Center
10:04PM 50.1767 160.3110 234° Southwest 466 536 36,000  Level FlightAware Transoceanic
10:05PM 50.1006 160.1496 234° Southwest 466 536 36,000  Level FlightAware Transoceanic
10:06PM 50.0242 159.9886 233° Southwest 466 536 36,000  Level FlightAware Transoceanic
10:07PM 49.9477 159.8282 233° Southwest 466 536 36,000  Level FlightAware Transoceanic
10:08PM 49.8709 159.6683 233° Southwest 466 536 36,000  Level FlightAware Transoceanic
10:09PM 49.7863 159.4964 234° Southwest 454 522 36,000  Level FlightAware Transoceanic
10:10PM 49.7167 159.3500 233° Southwest 454 522 36,000  Level FlightAware Transoceanic
10:11PM 49.6394 159.1923 233° Southwest 454 522 36,000  Level FlightAware Transoceanic
10:12PM 49.5619 159.0351 233° Southwest 454 522 36,000  Level FlightAware Transoceanic
10:13PM 49.4843 158.8784 233° Southwest 454 522 36,000  Level FlightAware Transoceanic
10:14PM 49.4064 158.7222 232° Southwest 454 522 36,000  Level FlightAware Transoceanic
10:15PM 49.3283 158.5665 232° Southwest 454 522 36,000  Level FlightAware Transoceanic
10:16PM 49.2500 158.4113 232° Southwest 454 522 36,000  Level FlightAware Transoceanic
10:17PM 49.1714 158.2565 232° Southwest 454 522 36,000  Level FlightAware Transoceanic
10:18PM 49.0927 158.1023 232° Southwest 454 522 36,000  Level FlightAware Transoceanic
10:19PM 49.0138 157.9485 232° Southwest 454 522 36,000  Level FlightAware Transoceanic
10:20PM 48.9347 157.7953 232° Southwest 454 522 36,000  Level FlightAware Transoceanic
10:21PM 48.8553 157.6425 232° Southwest 454 522 36,000  Level FlightAware Transoceanic
10:22PM 48.7758 157.4902 232° Southwest 454 522 36,000  Level FlightAware Transoceanic
10:23PM 48.6960 157.3384 231° Southwest 454 522 36,000  Level FlightAware Transoceanic
10:24PM 48.6161 157.1871 231° Southwest 454 522 36,000  Level FlightAware Transoceanic
10:25PM 48.5360 157.0362 231° Southwest 454 522 36,000  Level FlightAware Transoceanic
10:26PM 48.4557 156.8859 231° Southwest 454 522 36,000  Level FlightAware Transoceanic
10:27PM 48.3751 156.7360 231° Southwest 454 522 36,000  Level FlightAware Transoceanic
10:28PM 48.2944 156.5865 231° Southwest 454 522 36,000  Level FlightAware Transoceanic
10:29PM 48.2135 156.4376 231° Southwest 454 522 36,000  Level FlightAware Transoceanic
10:30PM 48.1324 156.2891 231° Southwest 454 522 36,000  Level FlightAware Transoceanic
10:31PM 48.0511 156.1411 231° Southwest 454 522 36,000  Level FlightAware Transoceanic
10:32PM 47.9696 155.9936 230° Southwest 454 522 36,000  Level FlightAware Transoceanic
10:33PM 47.8880 155.8465 230° Southwest 454 522 36,000  Level FlightAware Transoceanic
10:34PM 47.8061 155.6999 230° Southwest 454 522 36,000  Level FlightAware Transoceanic
10:35PM 47.7240 155.5537 230° Southwest 454 522 36,000  Level FlightAware Transoceanic
10:36PM 47.6418 155.4080 230° Southwest 454 522 36,000  Level FlightAware Transoceanic
10:37PM 47.5594 155.2628 230° Southwest 454 522 36,000  Level FlightAware Transoceanic
10:38PM 47.4768 155.1180 230° Southwest 454 522 36,000  Level FlightAware Transoceanic
10:39PM 47.3940 154.9737 230° Southwest 454 522 36,000  Level FlightAware Transoceanic
10:40PM 47.3111 154.8298 230° Southwest 454 522 36,000  Level FlightAware Transoceanic
10:41PM 47.2279 154.6864 229° Southwest 454 522 36,000  Level FlightAware Transoceanic
10:42PM 47.1446 154.5435 229° Southwest 454 522 36,000  Level FlightAware Transoceanic
10:43PM 47.0611 154.4009 229° Southwest 454 522 36,000  Level FlightAware Transoceanic
10:44PM 46.9775 154.2589 229° Southwest 454 522 36,000  Level FlightAware Transoceanic
10:45PM 46.8936 154.1172 229° Southwest 454 522 36,000  Level FlightAware Transoceanic
10:46PM 46.8096 153.9760 229° Southwest 454 522 36,000  Level FlightAware Transoceanic
10:47PM 46.7254 153.8353 229° Southwest 454 522 36,000  Level FlightAware Transoceanic
10:48PM 46.6410 153.6950 229° Southwest 454 522 36,000  Level FlightAware Transoceanic
10:49PM 46.5565 153.5551 229° Southwest 454 522 36,000  Level FlightAware Transoceanic
10:50PM 46.4718 153.4157 229° Southwest 454 522 36,000  Level FlightAware Transoceanic
10:51PM 46.3869 153.2767 228° Southwest 454 522 36,000  Level FlightAware Transoceanic
10:52PM 46.3019 153.1381 228° Southwest 454 522 36,000  Level FlightAware Transoceanic
10:53PM 46.2171 153.0007 228° Southwest  Level FlightAware Approximate
10:54PM 46.1317 152.8643 228° Southwest  Level FlightAware Approximate
10:55PM 46.1321 152.8651 228° Southwest  Level FlightAware Approximate
10:56PM 46.0465 152.7292 228° Southwest  Level FlightAware Approximate
10:57PM 45.9607 152.5937 228° Southwest  Level FlightAware Approximate
10:58PM 45.8747 152.4586 228° Southwest  Level FlightAware Approximate
10:59PM 45.7886 152.3240 228° Southwest  Level FlightAware Approximate
11:00PM 45.7024 152.1897 227° Southwest  Level FlightAware Approximate
11:01PM 45.6160 152.0559 227° Southwest  Level FlightAware Approximate
11:02PM 45.5294 151.9225 227° Southwest  Level FlightAware Approximate
11:03PM 45.4427 151.7895 227° Southwest  Level FlightAware Approximate
11:04PM 45.3558 151.6569 227° Southwest  Level FlightAware Approximate
11:05PM 45.2687 151.5247 227° Southwest  Level FlightAware Approximate
11:06PM 45.1816 151.3930 227° Southwest  Level FlightAware Approximate
11:07PM 45.0942 151.2616 227° Southwest  Level FlightAware Approximate
11:08PM 45.0067 151.1306 227° Southwest  Level FlightAware Approximate
11:09PM 44.9191 151.0001 227° Southwest  Level FlightAware Approximate
11:10PM 44.8313 150.8699 226° Southwest  Level FlightAware Approximate
11:11PM 44.7434 150.7401 226° Southwest  Level FlightAware Approximate
11:12PM 44.6553 150.6107 226° Southwest  Level FlightAware Approximate
11:13PM 44.5671 150.4817 226° Southwest  Level FlightAware Approximate
11:14PM 44.4787 150.3531 226° Southwest  Level FlightAware Approximate
11:15PM 44.3902 150.2249 226° Southwest  Level FlightAware Approximate
11:16PM 44.3016 150.0971 226° Southwest  Level FlightAware Approximate
11:17PM 44.2128 149.9697 226° Southwest  Level FlightAware Approximate
11:18PM 44.1238 149.8426 226° Southwest  Level FlightAware Approximate
11:19PM 44.0347 149.7160 226° Southwest  Level FlightAware Approximate
11:20PM 43.9455 149.5897 226° Southwest  Level FlightAware Approximate
11:21PM 43.8562 149.4638 225° Southwest  Level FlightAware Approximate
11:22PM 43.7667 149.3382 225° Southwest  Level FlightAware Approximate
11:23PM 43.6770 149.2131 225° Southwest  Level FlightAware Approximate
11:24PM 43.5873 149.0883 225° Southwest  Level FlightAware Approximate
11:25PM 43.4974 148.9639 225° Southwest  Level FlightAware Approximate
11:26PM 43.4073 148.8398 225° Southwest  Level FlightAware Approximate
11:27PM 43.3172 148.7162 225° Southwest  Level FlightAware Approximate
11:28PM 43.2269 148.5929 225° Southwest  Level FlightAware Approximate
11:28PM 43.3340 148.7390 225° Southwest 451 519 37,000  Level FlightAware
11:29PM 43.1364 148.4699 225° Southwest  Level FlightAware Approximate
11:29PM 43.2600 148.6380 225° Southwest 444 511 37,000  Level FlightAware
11:29PM 43.1830 148.5330 225° Southwest 449 517 37,000  Level FlightAware
11:30PM 43.1280 148.4590 224° Southwest 442 509 37,000  Level FlightAware
11:31PM 43.0610 148.3670 225° Southwest 440 506 37,000  Level FlightAware
11:31PM 43.0060 148.2930 225° Southwest 439 505 37,000  Level FlightAware
11:32PM 42.9330 148.1950 225° Southwest 435 501 37,000  Level FlightAware
11:33PM 42.8570 148.0930 225° Southwest 434 499 37,000  Level FlightAware
11:34PM 42.7880 148.0010 224° Southwest 435 501 37,000  Level FlightAware
11:35PM 42.7330 147.9280 224° Southwest 436 502 37,000  Level FlightAware
11:35PM 42.6710 147.8450 225° Southwest 437 503 37,000  Level FlightAware
11:36PM 42.6080 147.7610 224° Southwest 437 503 37,000  Level FlightAware
11:37PM 42.5540 147.6910 224° Southwest 438 504 37,000  Level FlightAware
11:37PM 42.4890 147.6050 224° Southwest 446 513 37,000  Level FlightAware
11:38PM 42.4040 147.4930 224° Southwest 447 514 37,000  Level FlightAware
11:39PM 42.3400 147.4090 224° Southwest 446 513 37,000  Level FlightAware
11:40PM 42.2410 147.2790 224° Southwest 437 503 37,000  Level FlightAware
11:41PM 42.1710 147.1880 224° Southwest 434 499 37,000  Level FlightAware
11:42PM 42.1170 147.1180 224° Southwest 431 496 37,000  Level FlightAware
11:42PM 42.0560 147.0390 224° Southwest 429 494 37,000  Level FlightAware
11:43PM 42.0030 146.9710 224° Southwest 427 491 37,000  Level FlightAware
11:44PM 41.9340 146.8830 224° Southwest 425 489 37,000  Level FlightAware
11:44PM 41.8670 146.7960 224° Southwest 429 494 37,000  Level FlightAware
11:45PM 41.8100 146.7230 224° Southwest 429 494 37,000  Level FlightAware
11:46PM 41.7440 146.6380 224° Southwest 427 491 37,000  Level FlightAware
11:46PM 41.6920 146.5720 223° Southwest 428 493 37,000  Level FlightAware
11:47PM 41.6320 146.4960 223° Southwest 429 494 37,000  Level FlightAware
11:48PM 41.5650 146.4100 224° Southwest 431 496 37,000  Level FlightAware
11:49PM 41.5040 146.3330 223° Southwest 431 496 37,000  Level FlightAware
11:49PM 41.4500 146.2650 223° Southwest 432 497 37,000  Level FlightAware
11:50PM 41.3810 146.1780 223° Southwest 439 505 37,000  Level FlightAware
11:51PM 41.3270 146.1120 223° Southwest 431 496 37,000  Level FlightAware
11:51PM 41.2590 146.0260 224° Southwest 430 495 37,000  Level FlightAware
11:52PM 41.2000 145.9520 223° Southwest 429 494 37,000  Level FlightAware
11:53PM 41.1400 145.8780 223° Southwest 430 495 37,000  Level FlightAware
11:53PM 41.0730 145.7950 223° Southwest 428 493 37,000  Level FlightAware
11:54PM 41.0150 145.7220 224° Southwest 430 495 37,000  Level FlightAware
11:55PM 40.9520 145.6450 223° Southwest 438 504 37,000  Level FlightAware
11:56PM 40.8870 145.5640 223° Southwest 440 506 37,000  Level FlightAware
11:56PM 40.8280 145.4920 223° Southwest 440 506 37,000  Level FlightAware
11:57PM 40.7600 145.4100 222° Southwest 443 510 37,000  Level FlightAware
11:58PM 40.7070 145.3440 223° Southwest 440 506 37,000  Level FlightAware
11:58PM 40.6320 145.2530 223° Southwest 437 503 37,000  Level FlightAware
11:59PM 40.5860 145.1970 223° Southwest 437 503 37,000  Level FlightAware
12:00AM 40.5160 145.1130 222° Southwest 415 478 37,000  Level FlightAware
12:01AM 40.4490 145.0330 222° Southwest 415 478 37,000  Level FlightAware
12:01AM 40.3890 144.9590 223° Southwest 419 482 37,000  Level FlightAware
12:02AM 40.3220 144.8780 223° Southwest 417 480 37,000  Level FlightAware
12:03AM 40.2570 144.8010 222° Southwest 418 481 37,000  Level FlightAware
12:03AM 40.2090 144.7430 223° Southwest 418 481 37,000  Level FlightAware
12:04AM 40.1480 144.6690 223° Southwest 418 481 37,000  Level FlightAware
12:05AM 40.1000 144.6110 223° Southwest 418 481 37,000  Level FlightAware
12:05AM 40.0510 144.5520 223° Southwest 418 481 37,000  Level FlightAware
12:06AM 39.9910 144.4790 223° Southwest 418 481 37,000  Level FlightAware
12:07AM 39.9430 144.4200 223° Southwest 418 481 37,000  Level FlightAware
12:08AM 39.8950 144.3620 223° Southwest 418 481 37,000  Level FlightAware
12:08AM 39.8470 144.3030 223° Southwest 418 481 37,000  Level FlightAware
12:09AM 39.7990 144.2450 223° Southwest 418 481 37,000  Level FlightAware
12:10AM 39.7390 144.1720 223° Southwest 418 481 37,000  Level FlightAware
12:10AM 39.6910 144.1140 223° Southwest 418 481 37,000  Level FlightAware
12:11AM 39.6430 144.0550 223° Southwest 418 481 37,000  Level FlightAware
12:12AM 39.5940 143.9970 222° Southwest 418 481 37,000  Level FlightAware
12:12AM 39.5460 143.9390 223° Southwest 418 481 37,000  Level FlightAware
12:13AM 39.4860 143.8660 223° Southwest 418 481 37,000  Level FlightAware
12:16AM 39.2727 143.6311 220° Southwest  Level FlightAware Approximate
12:17AM 39.1763 143.5254 221° Southwest  Level FlightAware Approximate
12:18AM 39.0810 143.4185 221° Southwest  Level FlightAware Approximate
12:19AM 38.9855 143.3119 221° Southwest  Level FlightAware Approximate
12:20AM 38.8873 143.2117 197° South  Level FlightAware Approximate
12:21AM 38.7664 143.1648 197° South  Level FlightAware Approximate
12:22AM 38.6454 143.1180 197° South  Level FlightAware Approximate
12:23AM 38.5244 143.0714 197° South  Level FlightAware Approximate
12:24AM 38.4034 143.0249 197° South  Level FlightAware Approximate
12:25AM 38.2824 142.9786 197° South  Level FlightAware Approximate
12:26AM 38.1614 142.9325 197° South  Level FlightAware Approximate
12:26AM 37.8190 143.1980 197° South 454 522 37,000  Level FlightAware
12:26AM 37.7370 143.1660 197° South 455 524 37,000  Level FlightAware
12:27AM 37.6620 143.1370 197° South 456 525 37,000  Level FlightAware
12:28AM 37.5760 143.1030 197° South 456 525 37,000  Level FlightAware
12:28AM 37.4620 143.0590 197° South 455 524 37,000  Level FlightAware
12:29AM 37.4060 143.0230 207° Southwest 448 516 37,000  Level FlightAware
12:30AM 37.3160 142.9580 210° Southwest 444 511 37,000  Level FlightAware
12:30AM 37.2460 142.9080 210° Southwest 444 511 37,000  Level FlightAware
12:31AM 37.1400 142.8350 209° Southwest 444 511 37,000  Level FlightAware
12:32AM 37.0670 142.7830 210° Southwest 444 511 37,000  Level FlightAware
12:33AM 36.9840 142.7260 209° Southwest 444 511 37,000  Level FlightAware
12:34AM 36.9150 142.6780 209° Southwest 446 513 37,000  Level FlightAware
12:34AM 36.8170 142.6110 209° Southwest 449 517 37,000  Level FlightAware
12:36AM 36.6860 142.5210 209° Southwest 37,000  Level FlightAware
12:36AM 36.6170 142.4730 209° Southwest 448 516 37,000 -300 Level FlightAware
12:37AM 36.5450 142.4240 209° Southwest 444 511 36,600 -1,680 Descending FlightAware
12:38AM 36.4650 142.3690 209° Southwest 446 513 34,700 -2,640 Descending FlightAware
12:38AM 36.3980 142.3230 209° Southwest 454 522 33,100 -2,340 Descending FlightAware
12:39AM 36.2850 142.2470 208° Southwest 426 490 30,800 -2,220 Descending FlightAware
12:40AM 36.2030 142.1910 209° Southwest 422 486 29,100 -2,220 Descending FlightAware
12:41AM 36.1370 142.1460 209° Southwest 426 490 27,700 -2,220 Descending FlightAware
12:42AM 36.0560 142.0910 209° Southwest 406 467 26,000 -2,220 Descending FlightAware
12:42AM 35.9960 142.0390 215° Southwest 391 450 24,600 -1,620 Descending FlightAware
12:43AM 35.9630 141.9760 237° Southwest 378 435 23,900 -1,140 Descending FlightAware
12:43AM 35.9330 141.9070 242° Southwest 377 434 23,200 -1,320 Descending FlightAware
12:44AM 35.9160 141.8220 256° West 367 422 22,300 -1,440 Descending FlightAware
12:45AM 35.9080 141.7060 265° West 352 405 21,000 -1,680 Descending FlightAware
12:46AM 35.9030 141.6250 266° West 346 398 19,700 -1,920 Descending FlightAware
12:46AM 35.8980 141.5600 265° West 342 394 18,600 -1,860 Descending FlightAware
12:47AM 35.8910 141.4610 265° West 343 395 17,100 -1,860 Descending FlightAware
12:48AM 35.8870 141.3960 266° West 339 390 16,000 -1,800 Descending FlightAware
12:48AM 35.8810 141.3150 265° West 334 384 14,700 -1,920 Descending FlightAware
12:49AM 35.8750 141.2230 265° West 328 377 13,200 -1,860 Descending FlightAware
12:50AM 35.8700 141.1480 265° West 323 372 12,100 -1,680 Descending FlightAware
12:51AM 35.8660 141.0670 267° West 313 360 10,900 -1,440 Descending FlightAware
12:51AM 35.8620 140.9980 266° West 299 344 10,100 -600 Descending FlightAware
12:52AM 35.8570 140.9260 265° West 255 293 10,100 -360 Level FlightAware
12:52AM 35.8550 140.8910 266° West 250 288 9,700 -1,020 Descending FlightAware
12:53AM 35.8530 140.8480 267° West 245 282 9,200 -1,200 Descending FlightAware
12:53AM 35.8520 140.8270 267° West 246 283 8,800 -1,380 Descending FlightAware
12:54AM 35.8510 140.7930 268° West 248 285 8,300 -1,200 Descending FlightAware
12:54AM 35.8500 140.7580 268° West 246 283 7,800 -1,080 Descending FlightAware
12:54AM 35.8500 140.7270 270° West 244 281 7,400 -1,020 Descending FlightAware
12:55AM 35.8490 140.6850 268° West 242 278 6,900 -600 Descending FlightAware
12:56AM 35.8490 140.6370 270° West 237 273 6,800 -840 Descending FlightAware
12:56AM 35.8530 140.6040 279° West 231 266 6,100 -1,200 Descending FlightAware
12:56AM 35.8630 140.5900 311° West 242 278 6,000 -180 Descending FlightAware
12:57AM 35.8960 140.5660 329° Northwest 242 278 6,000 -780 Level FlightAware
12:57AM 35.9160 140.5520 330° Northwest 236 272 5,300 -1,200 Descending FlightAware
12:58AM 35.9430 140.5330 330° Northwest 245 282 4,900 -960 Descending FlightAware
12:58AM 35.9880 140.5000 329° Northwest 246 283 4,200 -1,020 Descending FlightAware
12:59AM 36.0020 140.4860 321° Northwest 246 283 4,000 -840 Descending FlightAware
12:59AM 36.0100 140.4700 302° West 242 278 3,800 -960 Descending FlightAware
12:59AM 36.0080 140.4360 266° West 252 290 3,300 -900 Descending FlightAware
01:00AM 35.9890 140.4060 232° Southwest 219 252 3,000 -360 Descending FlightAware
01:00AM 35.9680 140.3800 225° Southwest 219 252 3,000  Level FlightAware
01:01AM 35.9550 140.3620 228° Southwest 198 228 3,000 -660 Level FlightAware
01:01AM 35.9330 140.3340 226° Southwest 185 213 2,400 -960 Descending FlightAware
01:01AM 35.9240 140.3280 208° Southwest 176 203 2,200 -1,020 Descending FlightAware
01:02AM 35.9120 140.3200 208° Southwest 167 192 1,900 -600 Descending FlightAware
01:02AM 35.8970 140.3160 192° South 161 185 1,800 -120 Descending FlightAware
01:02AM 35.8800 140.3130 188° South 161 185 1,800 -540 Level FlightAware
01:03AM 35.8510 140.3450 138° Southeast 146 168 1,200 -780 Descending FlightAware
01:04AM 35.8200 140.3670 150° Southeast 500 -780 Descending FlightAware